createdAt,value
2022-10-18T00:01:30.365Z,31.07
2022-10-18T00:03:57.469Z,30.80
2022-10-18T00:06:24.606Z,31.20
2022-10-18T00:08:51.704Z,31.77
2022-10-18T00:11:18.920Z,36.63
2022-10-18T00:13:46.053Z,29.37
2022-10-18T00:16:15.298Z,33.97
2022-10-18T00:18:42.808Z,31.47
2022-10-18T00:21:12.198Z,33.60
2022-10-18T00:23:39.467Z,32.80
2022-10-18T00:26:12.042Z,27.40
2022-10-18T00:28:39.242Z,30.73
2022-10-18T00:31:17.301Z,31.47
2022-10-18T00:33:45.452Z,25.27
2022-10-18T00:36:13.044Z,31.63
2022-10-18T00:38:40.550Z,30.67
2022-10-18T00:41:09.814Z,30.83
2022-10-18T00:43:55.065Z,27.30
2022-10-18T00:46:22.430Z,30.00
2022-10-18T00:48:49.943Z,28.07
2022-10-18T00:51:18.011Z,25.07
2022-10-18T00:53:45.249Z,24.70
2022-10-18T00:56:13.083Z,27.03
2022-10-18T00:58:40.542Z,30.33
2022-10-18T01:01:07.666Z,29.23
2022-10-18T01:03:35.550Z,28.43
2022-10-18T01:06:02.689Z,25.30
2022-10-18T01:08:29.807Z,24.87
2022-10-18T01:10:59.695Z,34.00
2022-10-18T01:13:41.055Z,28.07
2022-10-18T01:16:27.148Z,23.40
2022-10-18T01:19:03.568Z,23.17
2022-10-18T01:21:42.727Z,27.43
2022-10-18T01:24:15.718Z,29.80
2022-10-18T01:26:42.787Z,26.23
2022-10-18T01:29:13.037Z,25.27
2022-10-18T01:32:00.388Z,23.17
2022-10-18T01:34:28.372Z,24.83
2022-10-18T01:36:57.291Z,30.20
2022-10-18T01:39:29.741Z,26.47
2022-10-18T01:41:57.527Z,32.03
2022-10-18T01:44:26.340Z,29.90
2022-10-18T01:46:54.917Z,25.73
2022-10-18T01:49:22.066Z,25.97
2022-10-18T01:51:49.224Z,28.13
2022-10-18T01:54:20.008Z,25.17
2022-10-18T01:56:53.512Z,26.00
2022-10-18T01:59:20.581Z,32.03
2022-10-18T02:02:06.309Z,28.20
2022-10-18T02:04:39.610Z,30.47
2022-10-18T02:07:29.845Z,26.47
2022-10-18T02:10:17.218Z,28.07
2022-10-18T02:12:46.520Z,20.70
2022-10-18T02:15:16.832Z,27.87
2022-10-18T02:17:44.984Z,19.53
2022-10-18T02:20:13.219Z,20.50
2022-10-18T02:22:42.567Z,25.83
2022-10-18T02:25:11.923Z,27.23
2022-10-18T02:27:39.069Z,24.70
2022-10-18T02:30:06.728Z,29.17
2022-10-18T02:32:48.581Z,26.80
2022-10-18T02:35:25.363Z,23.70
2022-10-18T02:37:53.629Z,26.70
2022-10-18T02:40:20.867Z,28.83
2022-10-18T02:42:49.370Z,28.43
2022-10-18T02:45:16.742Z,26.40
2022-10-18T02:47:43.874Z,32.10
2022-10-18T02:50:11.070Z,28.53
2022-10-18T02:52:38.158Z,25.93
2022-10-18T02:55:06.078Z,25.90
2022-10-18T02:57:33.564Z,27.83
2022-10-18T03:00:00.880Z,34.53
2022-10-18T03:02:27.991Z,30.47
2022-10-18T03:04:55.090Z,24.63
2022-10-18T03:07:22.244Z,24.53
2022-10-18T03:09:49.434Z,28.40
2022-10-18T03:12:16.996Z,26.83
2022-10-18T03:14:44.183Z,31.57
2022-10-18T03:17:11.313Z,19.93
2022-10-18T03:19:38.780Z,25.03
2022-10-18T03:22:06.087Z,29.87
2022-10-18T03:24:33.226Z,26.40
2022-10-18T03:27:00.408Z,24.17
2022-10-18T03:29:27.531Z,21.87
2022-10-18T03:31:54.660Z,27.63
2022-10-18T03:34:21.757Z,21.70
2022-10-18T03:36:48.884Z,23.93
2022-10-18T03:39:16.028Z,26.77
2022-10-18T03:41:43.110Z,24.57
2022-10-18T03:44:10.260Z,23.43
2022-10-18T03:46:37.465Z,24.63
2022-10-18T03:49:04.629Z,26.17
2022-10-18T03:51:31.769Z,27.77
2022-10-18T03:53:58.854Z,22.83
2022-10-18T03:56:25.952Z,23.90
2022-10-18T03:58:53.085Z,28.77
2022-10-18T04:01:20.283Z,24.17
2022-10-18T04:03:47.453Z,29.07
2022-10-18T04:06:14.660Z,26.10
2022-10-18T04:08:41.808Z,23.37
2022-10-18T04:11:10.846Z,30.00
2022-10-18T04:13:38.020Z,23.80
2022-10-18T04:16:05.224Z,23.80
2022-10-18T04:18:32.361Z,25.80
2022-10-18T04:20:59.596Z,30.23
2022-10-18T04:23:26.770Z,21.83
2022-10-18T04:25:53.850Z,25.40
2022-10-18T04:28:21.107Z,23.23
2022-10-18T04:30:52.037Z,22.63
2022-10-18T04:33:19.415Z,27.57
2022-10-18T04:35:47.032Z,23.70
2022-10-18T04:38:14.798Z,27.67
2022-10-18T04:40:41.931Z,22.37
2022-10-18T04:43:09.099Z,25.10
2022-10-18T04:45:36.273Z,26.17
2022-10-18T04:48:03.947Z,26.30
2022-10-18T04:50:31.045Z,26.03
2022-10-18T04:52:58.235Z,22.10
2022-10-18T04:55:25.375Z,25.90
2022-10-18T04:57:53.534Z,21.47
2022-10-18T05:00:20.681Z,20.87
2022-10-18T05:02:47.877Z,27.40
2022-10-18T05:05:15.233Z,19.97
2022-10-18T05:07:42.328Z,27.17
2022-10-18T05:10:09.767Z,25.83
2022-10-18T05:12:36.884Z,23.60
2022-10-18T05:15:04.582Z,24.57
2022-10-18T05:17:31.757Z,28.10
2022-10-18T05:19:59.099Z,27.90
2022-10-18T05:22:26.194Z,29.60
2022-10-18T05:24:53.430Z,26.20
2022-10-18T05:27:20.646Z,21.57
2022-10-18T05:29:47.747Z,21.03
2022-10-18T05:32:14.974Z,25.47
2022-10-18T05:34:42.074Z,30.17
2022-10-18T05:37:09.193Z,26.77
2022-10-18T05:39:37.578Z,25.60
2022-10-18T05:42:05.086Z,19.20
2022-10-18T05:44:32.411Z,25.93
2022-10-18T05:46:59.535Z,22.17
2022-10-18T05:49:26.696Z,29.03
2022-10-18T05:51:53.859Z,26.30
2022-10-18T05:54:21.114Z,24.37
2022-10-18T05:56:48.409Z,26.93
2022-10-18T05:59:15.555Z,22.40
2022-10-18T06:01:43.457Z,24.93
2022-10-18T06:04:10.888Z,32.23
2022-10-18T06:06:38.681Z,24.83
2022-10-18T06:09:07.136Z,25.53
2022-10-18T06:11:34.233Z,24.80
2022-10-18T06:14:01.867Z,29.53
2022-10-18T06:16:32.473Z,21.70
2022-10-18T06:19:00.247Z,25.60
2022-10-18T06:21:27.765Z,23.03
2022-10-18T06:23:58.889Z,23.90
2022-10-18T06:26:27.323Z,29.37
2022-10-18T06:28:54.592Z,24.10
2022-10-18T06:31:21.785Z,26.47
2022-10-18T06:33:49.313Z,26.80
2022-10-18T06:36:22.024Z,21.97
2022-10-18T06:38:49.566Z,27.97
2022-10-18T06:41:17.872Z,23.63
2022-10-18T06:43:48.319Z,25.80
2022-10-18T06:46:15.442Z,23.40
2022-10-18T06:48:42.584Z,29.53
2022-10-18T06:51:10.999Z,26.13
2022-10-18T06:53:43.893Z,28.73
2022-10-18T06:56:15.937Z,27.73
2022-10-18T06:58:43.123Z,27.60
2022-10-18T07:01:11.372Z,27.03
2022-10-18T07:03:38.684Z,26.93
2022-10-18T07:06:06.826Z,29.93
2022-10-18T07:08:34.430Z,25.37
2022-10-18T07:11:01.563Z,25.57
2022-10-18T07:13:33.011Z,29.43
2022-10-18T07:16:08.655Z,22.80
2022-10-18T07:18:36.906Z,27.80
2022-10-18T07:21:07.492Z,32.33
2022-10-18T07:23:35.454Z,29.37
2022-10-18T07:26:03.057Z,23.50
2022-10-18T07:28:30.311Z,21.93
2022-10-18T07:30:59.445Z,29.17
2022-10-18T07:33:30.231Z,20.87
2022-10-18T07:35:57.328Z,22.00
2022-10-18T07:38:24.487Z,26.57
2022-10-18T07:40:57.171Z,22.20
2022-10-18T07:43:24.274Z,26.33
2022-10-18T07:45:54.699Z,26.23
2022-10-18T07:48:21.808Z,23.10
2022-10-18T07:50:48.941Z,23.80
2022-10-18T07:53:16.093Z,23.50
2022-10-18T07:55:44.651Z,22.47
2022-10-18T07:58:12.271Z,20.90
2022-10-18T08:00:39.679Z,22.07
2022-10-18T08:03:07.091Z,25.80
2022-10-18T08:05:34.305Z,23.73
2022-10-18T08:08:04.291Z,23.17
2022-10-18T08:10:35.670Z,25.50
2022-10-18T08:13:02.853Z,26.70
2022-10-18T08:15:29.966Z,27.03
2022-10-18T08:17:57.097Z,21.23
2022-10-18T08:20:30.852Z,26.10
2022-10-18T08:23:00.347Z,20.47
2022-10-18T08:25:28.512Z,21.77
2022-10-18T08:27:55.698Z,10.23
2022-10-18T08:30:23.542Z,24.33
2022-10-18T08:32:50.666Z,23.93
2022-10-18T08:35:17.813Z,25.03
2022-10-18T08:37:45.399Z,22.90
2022-10-18T08:40:16.067Z,19.03
2022-10-18T08:43:01.929Z,28.80
2022-10-18T08:45:41.268Z,20.30
2022-10-18T08:48:16.943Z,17.93
2022-10-18T08:50:44.154Z,19.63
2022-10-18T08:53:23.639Z,19.07
2022-10-18T08:55:58.635Z,16.30
2022-10-18T08:58:27.827Z,21.00
2022-10-18T09:01:11.476Z,18.53
2022-10-18T09:03:41.764Z,20.73
2022-10-18T09:06:19.802Z,20.20
2022-10-18T09:09:03.658Z,20.40
2022-10-18T09:11:30.743Z,21.70
2022-10-18T09:14:04.169Z,26.17
2022-10-18T09:16:45.369Z,23.27
2022-10-18T09:19:15.624Z,22.10
2022-10-18T09:21:48.645Z,16.40
2022-10-18T09:24:22.126Z,17.73
2022-10-18T09:26:50.538Z,16.27
2022-10-18T09:29:31.817Z,16.80
2022-10-18T09:32:17.723Z,17.70
2022-10-18T09:35:11.623Z,23.53
2022-10-18T09:37:39.753Z,14.17
2022-10-18T09:40:19.322Z,18.80
2022-10-18T09:43:05.434Z,13.90
2022-10-18T09:45:37.950Z,16.63
2022-10-18T09:48:13.894Z,18.10
2022-10-18T09:50:43.287Z,14.77
2022-10-18T09:53:30.222Z,22.60
2022-10-18T09:56:08.194Z,21.93
2022-10-18T09:58:46.307Z,16.80
2022-10-18T10:01:15.050Z,18.53
2022-10-18T10:03:42.949Z,25.50
2022-10-18T10:06:12.819Z,16.63
2022-10-18T10:08:49.291Z,19.73
2022-10-18T10:11:28.295Z,22.97
2022-10-18T10:13:58.044Z,15.53
2022-10-18T10:16:26.666Z,18.83
2022-10-18T10:18:54.667Z,18.00
2022-10-18T10:21:22.435Z,19.10
2022-10-18T10:23:57.730Z,20.50
2022-10-18T10:26:26.333Z,20.27
2022-10-18T10:28:53.497Z,19.67
2022-10-18T10:31:33.853Z,20.40
2022-10-18T10:34:02.555Z,18.63
2022-10-18T10:36:30.426Z,23.00
2022-10-18T10:39:23.601Z,23.67
2022-10-18T10:41:50.718Z,18.70
2022-10-18T10:44:22.541Z,18.90
2022-10-18T10:46:50.997Z,17.87
2022-10-18T10:49:39.136Z,19.03
2022-10-18T10:52:08.791Z,21.13
2022-10-18T10:54:50.338Z,22.53
2022-10-18T10:57:24.611Z,19.00
2022-10-18T10:59:52.563Z,14.53
2022-10-18T11:02:33.875Z,17.53
2022-10-18T11:05:29.191Z,20.87
2022-10-18T11:07:58.659Z,21.13
2022-10-18T11:10:28.974Z,17.70
2022-10-18T11:13:03.619Z,18.60
2022-10-18T11:15:35.894Z,22.57
2022-10-18T11:18:18.583Z,17.20
2022-10-18T11:20:48.405Z,18.60
2022-10-18T11:23:16.559Z,21.83
2022-10-18T11:25:49.640Z,18.33
2022-10-18T11:28:28.371Z,18.93
2022-10-18T11:31:02.233Z,20.97
2022-10-18T11:34:03.574Z,20.10
2022-10-18T11:36:27.829Z,22.43
2022-10-18T11:39:03.639Z,22.83
2022-10-18T11:41:39.851Z,24.10
2022-10-18T11:44:25.742Z,22.60
2022-10-18T11:46:58.513Z,17.07
2022-10-18T11:49:30.308Z,22.17
2022-10-18T11:52:08.273Z,23.40
2022-10-18T11:54:46.079Z,22.83
2022-10-18T11:57:19.100Z,20.03
2022-10-18T11:59:46.163Z,22.97
2022-10-18T12:02:22.424Z,16.63
2022-10-18T12:05:21.969Z,21.07
2022-10-18T12:07:47.900Z,17.03
2022-10-18T12:10:26.193Z,19.33
2022-10-18T12:13:06.171Z,18.47
2022-10-18T12:15:36.012Z,21.10
2022-10-18T12:18:07.863Z,18.93
2022-10-18T12:20:43.696Z,20.33
2022-10-18T12:23:10.775Z,17.77
2022-10-18T12:25:40.124Z,20.27
2022-10-18T12:28:10.246Z,26.43
2022-10-18T12:30:50.641Z,19.50
2022-10-18T12:33:28.343Z,13.47
2022-10-18T12:35:55.936Z,20.87
2022-10-18T12:38:34.133Z,16.53
2022-10-18T12:41:01.637Z,19.13
2022-10-18T12:43:36.898Z,17.27
2022-10-18T12:46:12.207Z,20.73
2022-10-18T12:48:45.673Z,14.77
2022-10-18T12:51:22.608Z,15.57
2022-10-18T12:54:09.192Z,16.30
2022-10-18T12:56:38.973Z,16.63
2022-10-18T12:59:15.368Z,18.53
2022-10-18T13:01:51.596Z,19.10
2022-10-18T13:04:28.141Z,18.80
2022-10-18T13:07:00.897Z,14.57
2022-10-18T13:09:29.707Z,13.77
2022-10-18T13:12:19.553Z,20.27
2022-10-18T13:15:26.548Z,13.27
2022-10-18T13:18:04.079Z,16.70
2022-10-18T13:20:52.961Z,13.40
2022-10-18T13:23:20.080Z,13.53
2022-10-18T13:25:53.348Z,14.97
2022-10-18T13:28:43.299Z,12.90
2022-10-18T13:31:10.430Z,13.03
2022-10-18T13:33:39.441Z,16.70
2022-10-18T13:36:06.638Z,18.53
2022-10-18T13:38:37.164Z,17.50
2022-10-18T13:41:05.795Z,16.70
2022-10-18T13:44:05.110Z,18.45
2022-10-18T13:46:34.946Z,11.30
2022-10-18T13:49:20.728Z,15.80
2022-10-18T13:51:47.855Z,18.40
2022-10-18T13:54:33.103Z,13.90
2022-10-18T13:57:03.069Z,13.50
2022-10-18T13:59:33.551Z,12.57
2022-10-18T14:02:36.350Z,15.93
2022-10-18T14:05:23.752Z,13.20
2022-10-18T14:07:57.457Z,11.80
2022-10-18T14:10:50.167Z,11.93
2022-10-18T14:13:25.940Z,10.10
2022-10-18T14:15:55.121Z,10.03
2022-10-18T14:18:31.763Z,12.47
2022-10-18T14:21:13.475Z,12.10
2022-10-18T14:23:44.691Z,10.73
2022-10-18T14:26:18.676Z,10.00
2022-10-18T14:28:59.598Z,12.33
2022-10-18T14:31:27.752Z,9.00
2022-10-18T14:33:58.027Z,11.03
2022-10-18T14:36:26.402Z,8.93
2022-10-18T14:39:07.019Z,9.67
2022-10-18T14:41:35.613Z,7.33
2022-10-18T14:44:14.702Z,8.97
2022-10-18T14:46:43.331Z,9.87
2022-10-18T14:49:11.376Z,7.77
2022-10-18T14:51:39.940Z,5.83
2022-10-18T14:54:08.079Z,8.53
2022-10-18T14:56:39.252Z,8.10
2022-10-18T14:59:11.429Z,8.13
2022-10-18T15:01:39.241Z,6.37
2022-10-18T15:04:09.053Z,5.93
2022-10-18T15:06:36.163Z,4.67
2022-10-18T15:09:04.847Z,5.13
2022-10-18T15:11:32.388Z,3.40
2022-10-18T15:14:03.094Z,5.30
2022-10-18T15:16:31.405Z,4.73
2022-10-18T15:19:03.596Z,3.13
2022-10-18T15:21:30.864Z,4.20
2022-10-18T15:24:17.965Z,3.37
2022-10-18T15:26:45.467Z,3.37
2022-10-18T15:29:17.731Z,4.17
2022-10-18T15:31:45.289Z,4.63
2022-10-18T15:34:17.692Z,4.07
2022-10-18T15:36:44.839Z,4.37
2022-10-18T15:39:25.688Z,3.47
2022-10-18T15:41:54.462Z,3.13
2022-10-18T15:44:28.327Z,3.63
2022-10-18T15:46:57.225Z,6.57
2022-10-18T15:49:24.396Z,5.23
2022-10-18T15:51:57.387Z,2.17
2022-10-18T15:54:31.250Z,3.20
2022-10-18T15:56:58.412Z,4.70
2022-10-18T15:59:26.954Z,5.50
2022-10-18T16:01:54.572Z,3.27
2022-10-18T16:04:24.935Z,3.83
2022-10-18T16:06:52.497Z,2.70
2022-10-18T16:09:20.655Z,6.70
2022-10-18T16:11:54.261Z,3.53
2022-10-18T16:14:23.643Z,3.00
2022-10-18T16:16:52.205Z,2.80
2022-10-18T16:19:21.206Z,3.77
2022-10-18T16:21:48.320Z,3.50
2022-10-18T16:24:15.487Z,5.07
2022-10-18T16:26:42.586Z,3.97
2022-10-18T16:29:17.082Z,2.37
2022-10-18T16:31:44.209Z,3.27
2022-10-18T16:34:11.522Z,4.00
2022-10-18T16:36:38.693Z,4.07
2022-10-18T16:39:07.715Z,2.80
2022-10-18T16:41:35.104Z,5.33
2022-10-18T16:44:02.228Z,4.27
2022-10-18T16:46:30.714Z,5.50
2022-10-18T16:48:58.055Z,6.70
2022-10-18T16:51:25.467Z,3.23
2022-10-18T16:53:53.707Z,5.10
2022-10-18T16:56:22.399Z,4.00
2022-10-18T16:58:49.959Z,4.20
2022-10-18T17:01:18.745Z,4.23
2022-10-18T17:03:46.359Z,5.40
2022-10-18T17:06:17.859Z,4.03
2022-10-18T17:08:45.056Z,5.27
2022-10-18T17:11:12.741Z,5.87
2022-10-18T17:13:39.936Z,4.53
2022-10-18T17:16:07.369Z,4.87
2022-10-18T17:18:34.558Z,3.43
2022-10-18T17:21:03.190Z,4.73
2022-10-18T17:23:30.919Z,4.30
2022-10-18T17:26:06.704Z,2.97
2022-10-18T17:28:34.800Z,4.37
2022-10-18T17:31:01.945Z,4.13
2022-10-18T17:33:29.044Z,5.60
2022-10-18T17:35:56.164Z,5.43
2022-10-18T17:38:23.253Z,5.27
2022-10-18T17:40:52.762Z,6.57
2022-10-18T17:43:19.916Z,4.70
2022-10-18T17:45:51.130Z,4.17
2022-10-18T17:48:18.314Z,4.67
2022-10-18T17:50:45.639Z,7.10
2022-10-18T17:53:13.169Z,5.20
2022-10-18T17:55:40.871Z,6.63
2022-10-18T17:58:08.059Z,5.60
2022-10-18T18:00:35.163Z,7.27
2022-10-18T18:03:02.433Z,6.57
2022-10-18T18:05:33.320Z,5.30
2022-10-18T18:08:03.852Z,4.27
2022-10-18T18:10:33.122Z,7.10
2022-10-18T18:13:00.299Z,7.00
2022-10-18T18:15:27.432Z,6.53
2022-10-18T18:17:58.221Z,4.30
2022-10-18T18:20:25.959Z,7.07
2022-10-18T18:22:53.530Z,5.77
2022-10-18T18:25:20.699Z,5.43
2022-10-18T18:27:47.806Z,5.67
2022-10-18T18:30:17.691Z,4.77
2022-10-18T18:32:44.872Z,5.83
2022-10-18T18:35:12.034Z,4.87
2022-10-18T18:37:39.226Z,6.07
2022-10-18T18:40:06.678Z,4.20
2022-10-18T18:42:34.098Z,5.33
2022-10-18T18:45:01.590Z,2.70
2022-10-18T18:47:28.887Z,2.67
2022-10-18T18:49:56.033Z,2.10
2022-10-18T18:52:23.294Z,4.33
2022-10-18T18:54:50.449Z,3.73
2022-10-18T18:57:17.756Z,2.03
2022-10-18T18:59:44.928Z,1.90
2022-10-18T19:02:12.038Z,3.23
2022-10-18T19:04:41.273Z,3.37
2022-10-18T19:07:08.626Z,5.47
2022-10-18T19:09:38.312Z,2.17
2022-10-18T19:12:05.926Z,1.63
2022-10-18T19:14:33.073Z,1.97
2022-10-18T19:17:01.505Z,1.97
2022-10-18T19:19:31.802Z,3.17
2022-10-18T19:22:00.432Z,1.33
2022-10-18T19:24:28.384Z,1.60
2022-10-18T19:26:56.779Z,2.43
2022-10-18T19:29:24.934Z,3.53
2022-10-18T19:31:53.069Z,2.10
2022-10-18T19:34:20.767Z,1.40
2022-10-18T19:36:48.703Z,2.50
2022-10-18T19:39:20.193Z,2.23
2022-10-18T19:41:49.484Z,2.00
2022-10-18T19:44:16.884Z,3.10
2022-10-18T19:46:44.192Z,2.17
2022-10-18T19:49:11.756Z,1.23
2022-10-18T19:51:40.033Z,2.77
2022-10-18T19:54:07.203Z,2.13
2022-10-18T19:56:34.542Z,1.87
2022-10-18T19:59:01.723Z,1.77
2022-10-18T20:01:29.473Z,1.60
2022-10-18T20:03:57.107Z,4.17
2022-10-18T20:06:24.596Z,2.70
2022-10-18T20:08:51.806Z,1.70
2022-10-18T20:11:20.963Z,2.70
2022-10-18T20:13:48.306Z,2.63
2022-10-18T20:16:16.160Z,3.17
2022-10-18T20:18:43.512Z,2.47
2022-10-18T20:21:12.039Z,1.87
2022-10-18T20:23:40.292Z,4.00
2022-10-18T20:26:08.927Z,4.13
2022-10-18T20:28:37.692Z,2.97
2022-10-18T20:31:15.381Z,2.30
2022-10-18T20:33:42.513Z,2.70
2022-10-18T20:36:11.080Z,3.07
2022-10-18T20:38:38.947Z,3.53
2022-10-18T20:41:13.470Z,2.10
2022-10-18T20:43:40.930Z,2.80
2022-10-18T20:46:08.433Z,2.30
2022-10-18T20:48:35.988Z,2.05
2022-10-18T20:51:06.746Z,3.53
2022-10-18T20:53:35.282Z,2.93
2022-10-18T20:56:03.327Z,3.23
2022-10-18T20:58:30.505Z,2.27
2022-10-18T21:00:57.670Z,3.53
2022-10-18T21:03:24.839Z,2.37
2022-10-18T21:05:51.935Z,2.77
2022-10-18T21:08:19.040Z,2.53
2022-10-18T21:10:46.143Z,2.50
2022-10-18T21:13:13.280Z,2.00
2022-10-18T21:15:40.402Z,3.67
2022-10-18T21:18:07.488Z,2.87
2022-10-18T21:20:34.633Z,2.80
2022-10-18T21:23:01.771Z,1.87
2022-10-18T21:25:28.875Z,3.17
2022-10-18T21:27:55.989Z,4.23
2022-10-18T21:30:23.176Z,3.53
2022-10-18T21:32:52.538Z,2.07
2022-10-18T21:35:19.715Z,3.50
2022-10-18T21:37:47.011Z,2.97
2022-10-18T21:40:14.129Z,3.37
2022-10-18T21:42:41.268Z,3.43
2022-10-18T21:45:08.687Z,3.53
2022-10-18T21:47:35.770Z,2.83
2022-10-18T21:50:03.153Z,4.83
2022-10-18T21:52:30.516Z,2.40
2022-10-18T21:54:57.733Z,2.70
2022-10-18T21:57:24.989Z,2.13
2022-10-18T21:59:52.079Z,2.47
2022-10-18T22:02:19.171Z,2.60
2022-10-18T22:04:46.957Z,4.27
2022-10-18T22:07:14.113Z,5.00
2022-10-18T22:09:41.830Z,2.00
2022-10-18T22:12:10.923Z,4.27
2022-10-18T22:14:38.207Z,3.40
2022-10-18T22:17:05.332Z,3.53
2022-10-18T22:19:32.453Z,4.60
2022-10-18T22:21:59.571Z,3.77
2022-10-18T22:24:26.764Z,3.77
2022-10-18T22:26:53.914Z,4.90
2022-10-18T22:29:22.126Z,3.00
2022-10-18T22:31:50.740Z,1.70
2022-10-18T22:34:19.747Z,3.37
2022-10-18T22:36:46.857Z,2.10
2022-10-18T22:39:15.186Z,1.93
2022-10-18T22:41:42.427Z,3.57
2022-10-18T22:44:12.195Z,3.60
2022-10-18T22:46:39.699Z,2.47
2022-10-18T22:49:06.833Z,2.63
2022-10-18T22:54:06.070Z,4.80
2022-10-18T22:56:33.296Z,2.83
2022-10-18T22:59:00.437Z,4.03
2022-10-18T23:01:27.579Z,2.87
2022-10-18T23:03:55.019Z,3.97
2022-10-18T23:06:23.736Z,2.47
2022-10-18T23:08:51.652Z,3.23
2022-10-18T23:11:19.216Z,3.13
2022-10-18T23:13:46.692Z,5.87
2022-10-18T23:16:13.923Z,2.07
2022-10-18T23:18:41.203Z,2.50
2022-10-18T23:21:10.288Z,2.50
2022-10-18T23:23:39.123Z,3.97
2022-10-18T23:26:07.817Z,4.83
2022-10-18T23:28:38.543Z,3.67
2022-10-18T23:31:06.744Z,2.40
2022-10-18T23:33:33.867Z,2.23
2022-10-18T23:36:00.994Z,2.87
2022-10-18T23:38:29.455Z,1.80
2022-10-18T23:40:56.600Z,3.10
2022-10-18T23:43:23.719Z,2.73
2022-10-18T23:45:50.980Z,4.13
2022-10-18T23:48:18.100Z,3.57
2022-10-18T23:50:45.349Z,2.00
2022-10-18T23:53:12.677Z,3.23
2022-10-18T23:55:39.876Z,3.30
2022-10-18T23:58:06.998Z,2.90
